createdAt,value
2018-11-02T00:01:00.829Z,78.61
2018-11-02T00:03:31.061Z,78.07
2018-11-02T00:06:01.502Z,78.45
2018-11-02T00:08:32.054Z,78.15
2018-11-02T00:11:02.458Z,78.01
2018-11-02T00:13:33.021Z,78.70
2018-11-02T00:16:03.376Z,78.32
2018-11-02T00:18:33.850Z,78.40
2018-11-02T00:21:04.464Z,78.03
2018-11-02T00:23:34.969Z,78.33
2018-11-02T00:26:05.474Z,78.52
2018-11-02T00:28:36.030Z,78.78
2018-11-02T00:31:06.738Z,78.80
2018-11-02T00:33:37.084Z,79.52
2018-11-02T00:36:07.668Z,79.27
2018-11-02T00:38:38.544Z,79.51
2018-11-02T00:41:34.730Z,79.52
2018-11-02T00:44:05.068Z,79.75
2018-11-02T00:46:35.503Z,79.57
2018-11-02T00:49:06.520Z,79.73
2018-11-02T00:51:37.636Z,79.62
2018-11-02T00:54:08.661Z,79.66
2018-11-02T00:56:39.303Z,79.89
2018-11-02T00:59:09.744Z,79.64
2018-11-02T01:01:40.130Z,79.31
2018-11-02T01:04:10.508Z,80.10
2018-11-02T01:06:40.964Z,79.92
2018-11-02T01:09:12.206Z,80.50
2018-11-02T01:11:42.446Z,80.41
2018-11-02T01:14:12.915Z,80.83
2018-11-02T01:16:43.438Z,80.67
2018-11-02T01:19:13.828Z,80.47
2018-11-02T01:21:44.604Z,80.42
2018-11-02T01:24:14.968Z,79.71
2018-11-02T01:26:45.221Z,80.36
2018-11-02T01:29:15.601Z,80.64
2018-11-02T01:31:45.917Z,80.62
2018-11-02T01:34:16.408Z,80.11
2018-11-02T01:36:46.755Z,80.18
2018-11-02T01:39:17.040Z,80.49
2018-11-02T01:41:47.434Z,80.14
2018-11-02T01:44:18.014Z,80.75
2018-11-02T01:46:48.396Z,79.69
2018-11-02T01:49:19.696Z,79.87
2018-11-02T01:51:50.035Z,79.59
2018-11-02T01:54:20.453Z,79.38
2018-11-02T01:56:52.045Z,79.70
2018-11-02T01:59:22.435Z,79.47
2018-11-02T02:01:52.671Z,79.11
2018-11-02T02:04:23.137Z,79.36
2018-11-02T02:06:54.193Z,79.53
2018-11-02T02:09:24.648Z,79.30
2018-11-02T02:11:55.022Z,79.55
2018-11-02T02:14:25.324Z,80.12
2018-11-02T02:16:55.695Z,79.70
2018-11-02T02:19:26.207Z,80.33
2018-11-02T02:21:56.704Z,80.29
2018-11-02T02:24:27.131Z,80.64
2018-11-02T02:26:57.485Z,80.18
2018-11-02T02:29:28.000Z,80.65
2018-11-02T02:31:58.492Z,80.93
2018-11-02T02:34:29.019Z,80.35
2018-11-02T02:36:59.456Z,80.74
2018-11-02T02:39:29.792Z,80.94
2018-11-02T02:42:00.214Z,80.30
2018-11-02T02:44:30.591Z,80.37
2018-11-02T02:47:00.876Z,80.68
2018-11-02T02:49:31.407Z,81.08
2018-11-02T02:52:01.816Z,81.35
2018-11-02T02:54:32.263Z,81.35
2018-11-02T02:57:02.625Z,81.95
2018-11-02T02:59:32.941Z,82.57
2018-11-02T03:02:03.325Z,82.34
2018-11-02T03:04:33.935Z,83.05
2018-11-02T03:07:04.432Z,83.29
2018-11-02T03:09:34.699Z,83.42
2018-11-02T03:12:14.822Z,83.69
2018-11-02T03:14:45.429Z,83.62
2018-11-02T03:17:16.582Z,83.72
2018-11-02T03:19:46.949Z,83.58
2018-11-02T03:22:17.453Z,83.53
2018-11-02T03:24:47.933Z,84.34
2018-11-02T03:27:18.525Z,84.20
2018-11-02T03:29:48.963Z,83.92
2018-11-02T03:32:19.377Z,84.13
2018-11-02T03:34:49.620Z,84.04
2018-11-02T03:37:19.997Z,83.15
2018-11-02T03:39:50.571Z,83.16
2018-11-02T03:42:21.020Z,82.80
2018-11-02T03:44:51.597Z,82.78
2018-11-02T03:47:22.161Z,82.15
2018-11-02T03:49:52.643Z,82.02
2018-11-02T03:52:23.239Z,81.73
2018-11-02T03:54:54.094Z,80.77
2018-11-02T03:57:25.169Z,81.05
2018-11-02T03:59:55.697Z,80.40
2018-11-02T04:02:26.276Z,80.98
2018-11-02T04:04:56.528Z,80.26
2018-11-02T04:07:27.047Z,79.90
2018-11-02T04:09:57.385Z,80.30
2018-11-02T04:12:27.783Z,80.55
2018-11-02T04:14:58.272Z,80.50
2018-11-02T04:17:28.669Z,80.06
2018-11-02T04:19:59.288Z,80.38
2018-11-02T04:22:29.748Z,79.93
2018-11-02T04:25:00.110Z,79.25
2018-11-02T04:27:30.489Z,79.36
2018-11-02T04:30:00.944Z,79.51
2018-11-02T04:32:31.450Z,79.75
2018-11-02T04:35:01.935Z,79.15
2018-11-02T04:37:32.319Z,79.75
2018-11-02T04:40:02.690Z,79.17
2018-11-02T04:42:33.058Z,79.41
2018-11-02T04:45:03.553Z,80.05
2018-11-02T04:47:34.412Z,80.80
2018-11-02T04:50:05.267Z,80.58
2018-11-02T04:52:36.688Z,80.27
2018-11-02T04:55:07.945Z,80.54
2018-11-02T04:57:38.499Z,81.10
2018-11-02T05:00:10.724Z,81.30
2018-11-02T05:02:41.136Z,81.17
2018-11-02T05:05:11.443Z,81.10
2018-11-02T05:07:41.863Z,81.45
2018-11-02T05:10:12.412Z,81.29
2018-11-02T05:12:42.860Z,81.43
2018-11-02T05:15:13.226Z,81.72
2018-11-02T05:17:43.553Z,81.73
2018-11-02T05:20:13.960Z,81.77
2018-11-02T05:22:44.512Z,81.76
2018-11-02T05:25:15.029Z,81.89
2018-11-02T05:27:45.644Z,81.54
2018-11-02T05:30:16.107Z,81.35
2018-11-02T05:32:46.380Z,81.49
2018-11-02T05:35:16.854Z,81.13
2018-11-02T05:37:47.251Z,81.07
2018-11-02T05:40:17.752Z,80.77
2018-11-02T05:42:48.211Z,81.43
2018-11-02T05:45:19.783Z,81.03
2018-11-02T05:47:50.284Z,80.56
2018-11-02T05:50:20.795Z,80.45
2018-11-02T05:52:51.170Z,79.64
2018-11-02T05:55:21.767Z,79.41
2018-11-02T05:57:51.994Z,79.18
2018-11-02T06:00:22.548Z,79.11
2018-11-02T06:02:53.179Z,78.76
2018-11-02T06:05:24.034Z,78.73
2018-11-02T06:07:54.555Z,78.73
2018-11-02T06:10:24.703Z,78.71
2018-11-02T06:12:55.119Z,78.33
2018-11-02T06:15:25.506Z,78.00
2018-11-02T06:17:56.136Z,78.00
2018-11-02T06:20:26.655Z,78.26
2018-11-02T06:22:57.132Z,77.77
2018-11-02T06:25:27.601Z,76.95
2018-11-02T06:27:58.111Z,77.28
2018-11-02T06:30:29.247Z,77.30
2018-11-02T06:32:59.697Z,77.25
2018-11-02T06:35:30.356Z,77.34
2018-11-02T06:38:01.234Z,76.75
2018-11-02T06:40:32.429Z,76.50
2018-11-02T06:43:02.893Z,77.16
2018-11-02T06:45:33.434Z,76.46
2018-11-02T06:48:03.907Z,76.35
2018-11-02T06:50:34.377Z,75.69
2018-11-02T06:53:05.179Z,75.56
2018-11-02T06:55:35.766Z,75.55
2018-11-02T06:58:06.305Z,75.49
2018-11-02T07:00:36.906Z,72.11
2018-11-02T07:03:07.219Z,67.06
2018-11-02T07:05:37.687Z,63.55
2018-11-02T07:08:08.558Z,60.58
2018-11-02T07:10:38.881Z,58.26
2018-11-02T07:13:09.354Z,56.99
2018-11-02T07:15:39.698Z,55.25
2018-11-02T07:18:09.984Z,55.25
2018-11-02T07:20:40.285Z,54.85
2018-11-02T07:23:10.461Z,53.86
2018-11-02T07:25:40.815Z,52.80
2018-11-02T07:28:11.511Z,52.94
2018-11-02T07:30:41.911Z,52.23
2018-11-02T07:33:12.518Z,52.02
2018-11-02T07:35:42.833Z,51.28
2018-11-02T07:38:13.149Z,51.70
2018-11-02T07:40:43.522Z,49.63
2018-11-02T07:43:13.909Z,49.98
2018-11-02T07:45:44.227Z,51.32
2018-11-02T07:48:14.741Z,49.17
2018-11-02T07:50:45.255Z,50.32
2018-11-02T07:53:16.523Z,49.79
2018-11-02T07:55:47.283Z,49.35
2018-11-02T07:58:17.787Z,49.51
2018-11-02T08:00:48.404Z,51.56
2018-11-02T08:03:18.997Z,52.67
2018-11-02T08:05:49.254Z,56.47
2018-11-02T08:08:19.630Z,59.73
2018-11-02T08:10:50.207Z,61.33
2018-11-02T08:13:20.700Z,62.60
2018-11-02T08:15:51.283Z,64.40
2018-11-02T08:18:21.868Z,65.45
2018-11-02T08:20:52.152Z,64.82
2018-11-02T08:23:22.543Z,62.13
2018-11-02T08:25:53.000Z,58.89
2018-11-02T08:28:23.608Z,55.08
2018-11-02T08:30:54.269Z,54.17
2018-11-02T08:33:24.770Z,51.70
2018-11-02T08:35:55.064Z,51.09
2018-11-02T08:38:25.484Z,53.88
2018-11-02T08:40:55.989Z,57.06
2018-11-02T08:43:26.392Z,58.99
2018-11-02T08:45:56.879Z,60.77
2018-11-02T08:48:27.360Z,62.06
2018-11-02T08:50:57.880Z,62.58
2018-11-02T08:53:28.108Z,63.93
2018-11-02T08:55:58.616Z,63.91
2018-11-02T08:58:29.204Z,64.40
2018-11-02T09:00:59.776Z,64.17
2018-11-02T09:03:30.244Z,65.93
2018-11-02T09:06:00.699Z,66.10
2018-11-02T09:08:31.100Z,67.08
2018-11-02T09:11:01.689Z,66.91
2018-11-02T09:13:32.044Z,67.98
2018-11-02T09:16:02.547Z,68.05
2018-11-02T09:18:33.217Z,68.38
2018-11-02T09:21:03.485Z,68.77
2018-11-02T09:23:34.000Z,69.51
2018-11-02T09:26:04.513Z,71.24
2018-11-02T09:28:35.092Z,72.13
2018-11-02T09:31:05.857Z,71.98
2018-11-02T09:33:36.336Z,72.97
2018-11-02T09:36:07.149Z,73.35
2018-11-02T09:38:37.604Z,73.28
2018-11-02T09:41:17.685Z,73.13
2018-11-02T09:43:48.211Z,73.81
2018-11-02T09:46:18.640Z,74.83
2018-11-02T09:48:49.140Z,74.16
2018-11-02T09:51:19.673Z,74.15
2018-11-02T09:53:50.119Z,71.95
2018-11-02T09:56:20.713Z,72.31
2018-11-02T09:58:51.291Z,71.85
2018-11-02T10:01:21.644Z,71.68
2018-11-02T10:03:52.019Z,70.76
2018-11-02T10:06:22.643Z,70.65
2018-11-02T10:08:53.212Z,71.43
2018-11-02T10:11:24.049Z,70.68
2018-11-02T10:13:54.668Z,70.45
2018-11-02T10:16:25.486Z,71.17
2018-11-02T10:18:56.116Z,70.52
2018-11-02T10:21:26.953Z,71.29
2018-11-02T10:23:57.643Z,71.69
2018-11-02T10:26:28.251Z,71.85
2018-11-02T10:28:58.924Z,73.01
2018-11-02T10:31:29.496Z,74.12
2018-11-02T10:34:00.028Z,74.81
2018-11-02T10:36:31.085Z,75.35
2018-11-02T10:39:02.181Z,75.92
2018-11-02T10:41:36.551Z,77.01
2018-11-02T10:44:07.180Z,77.57
2018-11-02T10:46:38.020Z,78.52
2018-11-02T10:49:14.648Z,79.26
2018-11-02T10:51:45.446Z,79.05
2018-11-02T10:54:16.043Z,78.72
2018-11-02T10:56:46.913Z,79.48
2018-11-02T10:59:17.964Z,79.81
2018-11-02T11:02:55.379Z,79.97
2018-11-02T11:05:28.602Z,79.14
2018-11-02T11:08:05.863Z,78.53
2018-11-02T11:10:37.803Z,77.67
2018-11-02T11:13:12.711Z,76.75
2018-11-02T11:15:47.789Z,75.10
2018-11-02T11:18:22.161Z,74.43
2018-11-02T11:20:56.310Z,72.79
2018-11-02T11:23:28.817Z,71.85
2018-11-02T11:26:03.005Z,70.85
2018-11-02T11:28:35.536Z,70.36
2018-11-02T11:31:09.985Z,70.02
2018-11-02T11:33:47.024Z,69.44
2018-11-02T11:36:22.030Z,69.75
2018-11-02T11:38:59.443Z,69.15
2018-11-02T11:41:33.256Z,68.87
2018-11-02T11:44:06.587Z,69.35
2018-11-02T11:46:37.308Z,68.03
2018-11-02T11:49:09.156Z,68.09
2018-11-02T11:51:39.756Z,66.70
2018-11-02T11:54:10.105Z,66.04
2018-11-02T11:56:40.596Z,65.84
2018-11-02T11:59:11.109Z,66.42
2018-11-02T12:01:41.574Z,65.68
2018-11-02T12:04:12.178Z,66.55
2018-11-02T12:06:42.555Z,67.66
2018-11-02T12:09:13.239Z,67.13
2018-11-02T12:11:43.953Z,67.36
2018-11-02T12:14:14.676Z,65.89
2018-11-02T12:16:45.285Z,65.85
2018-11-02T12:19:16.236Z,66.16
2018-11-02T12:21:46.761Z,65.45
2018-11-02T12:24:17.560Z,65.21
2018-11-02T12:26:48.053Z,65.04
2018-11-02T12:29:18.282Z,65.71
2018-11-02T12:31:48.522Z,65.66
2018-11-02T12:34:19.163Z,65.53
2018-11-02T12:36:49.580Z,64.68
2018-11-02T12:39:20.175Z,64.42
2018-11-02T12:41:50.624Z,64.14
2018-11-02T12:44:21.197Z,65.77
2018-11-02T12:46:51.720Z,64.73
2018-11-02T12:49:22.427Z,64.34
2018-11-02T12:51:53.132Z,63.38
2018-11-02T12:57:26.944Z,65.02
2018-11-02T12:59:57.327Z,65.32
2018-11-02T13:02:27.835Z,65.36
2018-11-02T13:05:00.136Z,64.16
2018-11-02T13:07:30.542Z,64.15
2018-11-02T13:10:01.200Z,64.92
2018-11-02T13:12:31.624Z,64.94
2018-11-02T13:15:02.591Z,65.73
2018-11-02T13:17:33.018Z,64.52
2018-11-02T13:20:03.659Z,64.93
2018-11-02T13:22:34.338Z,65.02
2018-11-02T13:25:04.680Z,65.61
2018-11-02T13:27:35.162Z,65.67
2018-11-02T13:30:05.784Z,65.23
2018-11-02T13:32:36.484Z,65.85
2018-11-02T13:35:08.712Z,65.26
2018-11-02T13:37:39.377Z,65.30
2018-11-02T13:40:11.664Z,66.06
2018-11-02T13:42:42.365Z,66.83
2018-11-02T13:45:14.113Z,66.96
2018-11-02T13:47:44.933Z,66.19
2018-11-02T13:50:15.488Z,65.24
2018-11-02T13:52:46.138Z,65.14
2018-11-02T13:55:16.660Z,64.49
2018-11-02T13:57:47.371Z,64.68
2018-11-02T14:00:18.961Z,64.97
2018-11-02T14:02:49.408Z,64.29
2018-11-02T14:05:19.908Z,63.97
2018-11-02T14:07:50.304Z,63.73
2018-11-02T14:10:20.770Z,63.81
2018-11-02T14:12:51.199Z,63.99
2018-11-02T14:15:21.505Z,64.87
2018-11-02T14:17:51.900Z,65.61
2018-11-02T14:20:22.376Z,66.55
2018-11-02T14:22:52.695Z,66.73
2018-11-02T14:25:23.033Z,67.47
2018-11-02T14:27:53.544Z,67.02
2018-11-02T14:30:24.018Z,66.37
2018-11-02T14:32:54.425Z,66.54
2018-11-02T14:35:24.953Z,65.94
2018-11-02T14:37:55.365Z,66.14
2018-11-02T14:40:25.892Z,66.27
2018-11-02T14:42:56.553Z,66.01
2018-11-02T14:45:27.034Z,66.14
2018-11-02T14:47:57.251Z,66.00
2018-11-02T14:50:27.779Z,66.70
2018-11-02T14:52:58.216Z,66.96
2018-11-02T14:55:28.676Z,66.88
2018-11-02T14:57:59.001Z,67.39
2018-11-02T15:00:29.634Z,67.63
2018-11-02T15:03:00.232Z,68.00
2018-11-02T15:05:30.641Z,68.15
2018-11-02T15:08:01.186Z,67.40
2018-11-02T15:10:32.091Z,68.14
2018-11-02T15:13:02.630Z,68.16
2018-11-02T15:15:33.415Z,68.14
2018-11-02T15:18:03.921Z,68.42
2018-11-02T15:20:34.460Z,69.04
2018-11-02T15:23:04.873Z,69.46
2018-11-02T15:25:35.412Z,69.39
2018-11-02T15:28:06.019Z,69.38
2018-11-02T15:30:36.525Z,69.57
2018-11-02T15:33:07.314Z,69.86
2018-11-02T15:35:38.000Z,70.49
2018-11-02T15:38:08.468Z,70.08
2018-11-02T15:40:38.937Z,70.94
2018-11-02T15:43:09.249Z,71.20
2018-11-02T15:45:39.679Z,71.93
2018-11-02T15:48:10.056Z,72.07
2018-11-02T15:50:40.742Z,72.29
2018-11-02T15:53:11.455Z,72.46
2018-11-02T15:55:42.027Z,72.81
2018-11-02T15:58:12.747Z,73.40
2018-11-02T16:00:43.267Z,74.10
2018-11-02T16:03:13.768Z,73.84
2018-11-02T16:05:44.382Z,74.46
2018-11-02T16:08:14.867Z,74.59
2018-11-02T16:10:45.179Z,75.29
2018-11-02T16:13:15.602Z,75.25
2018-11-02T16:15:46.069Z,75.15
2018-11-02T16:18:16.697Z,75.11
2018-11-02T16:20:47.684Z,75.53
2018-11-02T16:23:18.076Z,75.64
2018-11-02T16:25:48.754Z,76.32
2018-11-02T16:28:19.225Z,76.24
2018-11-02T16:30:49.506Z,76.45
2018-11-02T16:33:19.859Z,76.44
2018-11-02T16:35:50.561Z,76.77
2018-11-02T16:38:21.128Z,76.88
2018-11-02T16:40:51.524Z,77.10
2018-11-02T16:43:21.934Z,77.15
2018-11-02T16:45:52.818Z,76.88
2018-11-02T16:48:23.410Z,77.03
2018-11-02T16:50:54.060Z,76.79
2018-11-02T16:53:24.685Z,76.82
2018-11-02T16:55:55.245Z,76.95
2018-11-02T16:58:25.641Z,77.12
2018-11-02T17:00:56.008Z,77.55
2018-11-02T17:03:26.468Z,77.65
2018-11-02T17:05:57.100Z,77.79
2018-11-02T17:08:27.656Z,78.19
2018-11-02T17:10:58.217Z,78.61
2018-11-02T17:13:28.853Z,78.38
2018-11-02T17:15:59.556Z,78.80
2018-11-02T17:18:30.187Z,79.13
2018-11-02T17:21:00.573Z,78.40
2018-11-02T17:23:31.159Z,78.42
2018-11-02T17:26:01.660Z,78.94
2018-11-02T17:28:32.227Z,78.89
2018-11-02T17:31:02.904Z,78.43
2018-11-02T17:33:33.385Z,78.68
2018-11-02T17:36:03.895Z,78.32
2018-11-02T17:38:34.460Z,78.69
2018-11-02T17:41:05.044Z,78.55
2018-11-02T17:43:36.637Z,79.25
2018-11-02T17:46:07.590Z,79.03
2018-11-02T17:48:38.339Z,79.47
2018-11-02T17:51:08.938Z,79.23
2018-11-02T17:53:39.501Z,79.19
2018-11-02T17:56:09.942Z,79.53
2018-11-02T17:58:40.471Z,79.35
2018-11-02T18:01:11.061Z,79.70
2018-11-02T18:03:41.540Z,79.62
2018-11-02T18:06:12.178Z,79.86
2018-11-02T18:08:42.401Z,80.19
2018-11-02T18:11:12.849Z,79.90
2018-11-02T18:13:43.327Z,80.17
2018-11-02T18:16:14.561Z,80.43
2018-11-02T18:18:44.918Z,80.48
2018-11-02T18:21:15.297Z,80.79
2018-11-02T18:23:45.898Z,80.62
2018-11-02T18:26:16.420Z,80.78
2018-11-02T18:28:46.764Z,80.78
2018-11-02T18:31:17.514Z,81.50
2018-11-02T18:33:48.010Z,81.54
2018-11-02T18:36:18.512Z,82.17
2018-11-02T18:38:48.783Z,82.02
2018-11-02T18:41:19.438Z,82.20
2018-11-02T18:43:49.952Z,81.98
2018-11-02T18:46:20.303Z,82.17
2018-11-02T18:48:50.711Z,82.46
2018-11-02T18:51:21.293Z,82.63
2018-11-02T18:53:51.852Z,82.59
2018-11-02T18:56:22.420Z,82.53
2018-11-02T18:58:52.939Z,82.37
2018-11-02T19:01:23.444Z,82.51
2018-11-02T19:03:53.911Z,82.81
2018-11-02T19:06:24.252Z,83.62
2018-11-02T19:08:54.856Z,83.27
2018-11-02T19:11:25.381Z,83.07
2018-11-02T19:13:55.946Z,83.96
2018-11-02T19:16:26.411Z,84.04
2018-11-02T19:18:56.834Z,83.91
2018-11-02T19:21:27.417Z,83.36
2018-11-02T19:23:57.761Z,83.09
2018-11-02T19:26:28.123Z,83.77
2018-11-02T19:28:58.677Z,83.42
2018-11-02T19:31:29.074Z,83.72
2018-11-02T19:33:59.515Z,83.76
2018-11-02T19:36:30.149Z,83.54
2018-11-02T19:39:00.700Z,83.75
2018-11-02T19:41:31.613Z,84.16
2018-11-02T19:44:02.121Z,84.21
2018-11-02T19:46:32.753Z,84.19
2018-11-02T19:49:03.301Z,84.20
2018-11-02T19:51:33.867Z,84.62
2018-11-02T19:54:04.512Z,84.48
2018-11-02T19:56:34.976Z,84.26
2018-11-02T19:59:05.451Z,84.83
2018-11-02T20:01:35.955Z,84.77
2018-11-02T20:04:06.339Z,84.46
2018-11-02T20:06:43.609Z,84.58
2018-11-02T20:09:14.506Z,84.44
2018-11-02T20:11:44.936Z,84.44
2018-11-02T20:14:15.371Z,84.73
2018-11-02T20:16:45.811Z,84.97
2018-11-02T20:19:16.393Z,84.46
2018-11-02T20:21:46.731Z,84.54
2018-11-02T20:24:17.649Z,84.82
2018-11-02T20:26:48.520Z,84.53
2018-11-02T20:29:26.364Z,84.71
2018-11-02T20:32:04.660Z,85.25
2018-11-02T20:34:35.079Z,85.08
2018-11-02T20:37:05.760Z,85.27
2018-11-02T20:39:36.376Z,85.22
2018-11-02T20:42:08.443Z,84.77
2018-11-02T20:44:39.470Z,84.78
2018-11-02T20:47:12.969Z,85.01
2018-11-02T20:49:45.550Z,84.80
2018-11-02T20:52:16.102Z,85.38
2018-11-02T20:54:47.361Z,85.47
2018-11-02T20:57:18.196Z,85.30
2018-11-02T20:59:48.941Z,85.20
2018-11-02T21:02:19.479Z,85.38
2018-11-02T21:04:52.225Z,85.50
2018-11-02T21:07:22.851Z,85.37
2018-11-02T21:09:53.338Z,85.36
2018-11-02T21:12:23.729Z,84.86
2018-11-02T21:14:54.426Z,85.04
2018-11-02T21:17:24.760Z,84.68
2018-11-02T21:19:55.300Z,84.78
2018-11-02T21:22:25.751Z,85.33
2018-11-02T21:24:56.705Z,84.71
2018-11-02T21:27:27.314Z,85.25
2018-11-02T21:29:58.039Z,85.17
2018-11-02T21:32:30.420Z,85.12
2018-11-02T21:35:01.648Z,85.12
2018-11-02T21:37:32.127Z,85.44
2018-11-02T21:40:02.588Z,85.47
2018-11-02T21:42:33.085Z,85.05
2018-11-02T21:45:03.677Z,85.12
2018-11-02T21:47:34.400Z,85.24
2018-11-02T21:50:04.973Z,85.01
2018-11-02T21:52:35.320Z,85.08
2018-11-02T21:55:06.159Z,84.79
2018-11-02T21:57:36.940Z,84.91
2018-11-02T22:00:10.577Z,85.17
2018-11-02T22:02:41.228Z,85.20
2018-11-02T22:05:12.956Z,85.10
2018-11-02T22:07:44.980Z,85.30
2018-11-02T22:10:16.881Z,85.04
2018-11-02T22:12:47.437Z,85.40
2018-11-02T22:15:18.031Z,85.07
2018-11-02T22:17:48.623Z,85.18
2018-11-02T22:20:19.250Z,85.52
2018-11-02T22:22:49.823Z,85.54
2018-11-02T22:25:20.189Z,85.29
2018-11-02T22:27:50.640Z,85.42
2018-11-02T22:30:21.214Z,85.77
2018-11-02T22:32:52.324Z,85.30
2018-11-02T22:35:22.800Z,85.68
2018-11-02T22:37:53.406Z,85.71
2018-11-02T22:40:24.002Z,85.74
2018-11-02T22:42:54.483Z,85.38
2018-11-02T22:45:24.868Z,85.75
2018-11-02T22:48:00.387Z,85.52
2018-11-02T22:50:30.944Z,85.59
2018-11-02T22:53:01.628Z,85.29
2018-11-02T22:55:32.104Z,85.21
2018-11-02T22:58:02.583Z,85.11
2018-11-02T23:00:33.273Z,85.03
2018-11-02T23:03:03.734Z,84.62
2018-11-02T23:05:34.326Z,84.71
2018-11-02T23:08:05.045Z,84.41
2018-11-02T23:10:35.608Z,84.31
2018-11-02T23:13:06.451Z,84.35
2018-11-02T23:15:36.894Z,84.50
2018-11-02T23:18:08.000Z,84.56
2018-11-02T23:20:38.611Z,84.96
2018-11-02T23:23:09.131Z,84.86
2018-11-02T23:25:40.408Z,84.95
2018-11-02T23:28:10.942Z,85.41
2018-11-02T23:30:41.529Z,85.15
2018-11-02T23:33:12.096Z,84.90
2018-11-02T23:35:46.543Z,85.31
2018-11-02T23:38:16.927Z,85.38
2018-11-02T23:40:47.431Z,85.29
2018-11-02T23:43:17.891Z,85.17
2018-11-02T23:45:49.026Z,85.46
2018-11-02T23:48:20.591Z,85.04
2018-11-02T23:50:51.790Z,85.15
2018-11-02T23:53:22.815Z,85.09
2018-11-02T23:55:53.079Z,84.82
2018-11-02T23:58:23.480Z,84.65
